Meredith, CO (81642)

4:06 PM MST on January 16, 2017 (GMT -0700)
MKLNC2 | | Change Station

Elev 9597 ft 39.32 °N, 106.61 °W | Updated 11 hours ago

Mostly Cloudy
Mostly Cloudy
26.0 °F
Feels Like 26 °F
N
-
Wind Variable Wind from North

Today
High -- | Low -- °F
--% Chance of Precip.
Yesterday
High -- | Low -- °F
Precip. -- in
Pressure 29.95 in
Visibility 10.0 miles
Clouds Mostly Cloudy 5000 ft
Windchill 26 °F
Dew Point Not available.
Humidity Not available.
Rainfall 0.01 in
Snow Depth Not available.
7:24 AM 5:09 PM
Waning Gibbous, 78% visible
METAR KASE 162253Z 01005KT 10SM BKN050 00/M04 A3000 RMK AO2 SLP141 T00001039
Pressure 29.95 in
Visibility 10.0 miles
Clouds Mostly Cloudy 5000 ft
Windchill 26 °F
Dew Point Not available.
Humidity Not available.
Rainfall 0.01 in
Snow Depth Not available.
7:24 AM 5:09 PM
Waning Gibbous, 78% visible
METAR KASE 162253Z 01005KT 10SM BKN050 00/M04 A3000 RMK AO2 SLP141 T00001039

Get Your Daily Forecast Email!

Thanks for signing up!

Be on the lookout for a verification email in your inbox.

You'll start receiving the daily forecast at 8 AM.

×

10-Day Weather Forecast

Almanac

Astronomy

Jan. 16, 2017 Rise Set
Actual Time
Civil Twilight
Nautical Twilight
Astronomical Twilight
Moon
Length of Visible Light
Length of Day
Tomorrow will be .
, % of the Moon is Illuminated

Today's Extremes

State Highs State Lows

Community

WunderPhotos

Upload Photos

1,962,540 photos uploaded!

WunderBlog® & News

Nearby

Air Quality

  Air Quality AQ Index Pollutant
Not available.

Snow Depth

Station Depth Elevation

Earthquake Activity

City Distance Mag. Time & Date
Minimum magnitude displayed is 2.5.

Coastal Water Temperatures

Place Temperature

Stations

Nearby Weather Stations

Station Location Temp. Windchill Dew Point Humidity Wind Precip. Elev Updated Type
                   

Watches & Warnings

There are currently no watches in effect.